sensor_id;sensor_type;location;lat;lon;timestamp;temperature;humidity
39401;SHT31;75540;50.000;7.360;2024-03-07T00:01:16;3.81;86.12
39401;SHT31;75540;50.000;7.360;2024-03-07T00:03:44;3.87;85.89
39401;SHT31;75540;50.000;7.360;2024-03-07T00:06:13;3.83;85.89
39401;SHT31;75540;50.000;7.360;2024-03-07T00:08:41;3.77;85.73
39401;SHT31;75540;50.000;7.360;2024-03-07T00:11:09;3.73;85.93
39401;SHT31;75540;50.000;7.360;2024-03-07T00:13:39;3.73;85.78
39401;SHT31;75540;50.000;7.360;2024-03-07T00:16:07;3.76;85.70
39401;SHT31;75540;50.000;7.360;2024-03-07T00:18:35;3.69;85.89
39401;SHT31;75540;50.000;7.360;2024-03-07T00:21:04;3.69;85.91
39401;SHT31;75540;50.000;7.360;2024-03-07T00:23:33;3.73;85.66
39401;SHT31;75540;50.000;7.360;2024-03-07T00:26:02;3.74;85.66
39401;SHT31;75540;50.000;7.360;2024-03-07T00:28:30;3.67;85.63
39401;SHT31;75540;50.000;7.360;2024-03-07T00:31:03;3.60;85.84
39401;SHT31;75540;50.000;7.360;2024-03-07T00:33:33;3.67;85.82
39401;SHT31;75540;50.000;7.360;2024-03-07T00:36:21;3.55;85.79
39401;SHT31;75540;50.000;7.360;2024-03-07T00:38:50;3.58;85.87
39401;SHT31;75540;50.000;7.360;2024-03-07T00:41:18;3.59;85.89
39401;SHT31;75540;50.000;7.360;2024-03-07T00:43:47;3.60;85.65
39401;SHT31;75540;50.000;7.360;2024-03-07T00:46:16;3.56;85.68
39401;SHT31;75540;50.000;7.360;2024-03-07T00:48:44;3.48;86.01
39401;SHT31;75540;50.000;7.360;2024-03-07T00:51:13;3.35;86.40
39401;SHT31;75540;50.000;7.360;2024-03-07T00:53:42;3.35;86.65
39401;SHT31;75540;50.000;7.360;2024-03-07T00:56:10;3.33;86.47
39401;SHT31;75540;50.000;7.360;2024-03-07T00:58:38;3.36;86.69
39401;SHT31;75540;50.000;7.360;2024-03-07T01:01:07;3.32;86.80
39401;SHT31;75540;50.000;7.360;2024-03-07T01:03:40;3.29;86.81
39401;SHT31;75540;50.000;7.360;2024-03-07T01:06:08;3.28;86.92
39401;SHT31;75540;50.000;7.360;2024-03-07T01:08:37;3.28;87.04
39401;SHT31;75540;50.000;7.360;2024-03-07T01:11:06;3.29;86.94
39401;SHT31;75540;50.000;7.360;2024-03-07T01:13:37;3.26;87.11
39401;SHT31;75540;50.000;7.360;2024-03-07T01:16:06;3.36;86.59
39401;SHT31;75540;50.000;7.360;2024-03-07T01:18:34;3.40;86.63
39401;SHT31;75540;50.000;7.360;2024-03-07T01:21:05;3.25;86.72
39401;SHT31;75540;50.000;7.360;2024-03-07T01:23:33;3.22;86.85
39401;SHT31;75540;50.000;7.360;2024-03-07T01:26:01;3.20;86.97
39401;SHT31;75540;50.000;7.360;2024-03-07T01:28:30;3.28;86.97
39401;SHT31;75540;50.000;7.360;2024-03-07T01:30:58;3.23;86.85
39401;SHT31;75540;50.000;7.360;2024-03-07T01:33:26;3.23;86.84
39401;SHT31;75540;50.000;7.360;2024-03-07T01:35:55;3.33;86.67
39401;SHT31;75540;50.000;7.360;2024-03-07T01:38:25;3.28;86.71
39401;SHT31;75540;50.000;7.360;2024-03-07T01:40:53;3.29;86.57
39401;SHT31;75540;50.000;7.360;2024-03-07T01:43:21;3.23;86.70
39401;SHT31;75540;50.000;7.360;2024-03-07T01:45:53;3.26;86.81
39401;SHT31;75540;50.000;7.360;2024-03-07T01:48:26;3.22;86.93
39401;SHT31;75540;50.000;7.360;2024-03-07T01:50:56;3.23;86.86
39401;SHT31;75540;50.000;7.360;2024-03-07T01:53:26;3.23;86.89
39401;SHT31;75540;50.000;7.360;2024-03-07T01:55:56;3.19;86.79
39401;SHT31;75540;50.000;7.360;2024-03-07T01:58:24;3.19;86.89
39401;SHT31;75540;50.000;7.360;2024-03-07T02:00:53;3.18;86.85
39401;SHT31;75540;50.000;7.360;2024-03-07T02:03:21;3.22;86.82
39401;SHT31;75540;50.000;7.360;2024-03-07T02:05:49;3.23;86.61
39401;SHT31;75540;50.000;7.360;2024-03-07T02:08:18;3.22;86.63
39401;SHT31;75540;50.000;7.360;2024-03-07T02:10:48;3.12;86.82
39401;SHT31;75540;50.000;7.360;2024-03-07T02:13:16;3.15;86.78
39401;SHT31;75540;50.000;7.360;2024-03-07T02:15:45;3.20;86.48
39401;SHT31;75540;50.000;7.360;2024-03-07T02:18:13;3.25;86.50
39401;SHT31;75540;50.000;7.360;2024-03-07T02:20:44;3.20;86.48
39401;SHT31;75540;50.000;7.360;2024-03-07T02:23:13;3.15;86.42
39401;SHT31;75540;50.000;7.360;2024-03-07T02:25:42;3.16;86.84
39401;SHT31;75540;50.000;7.360;2024-03-07T02:28:10;3.12;86.96
39401;SHT31;75540;50.000;7.360;2024-03-07T02:30:38;3.13;86.91
39401;SHT31;75540;50.000;7.360;2024-03-07T02:33:06;3.16;86.89
39401;SHT31;75540;50.000;7.360;2024-03-07T02:35:36;3.13;86.95
39401;SHT31;75540;50.000;7.360;2024-03-07T02:38:06;3.20;86.91
39401;SHT31;75540;50.000;7.360;2024-03-07T02:40:35;3.26;86.51
39401;SHT31;75540;50.000;7.360;2024-03-07T02:43:03;3.32;86.40
39401;SHT31;75540;50.000;7.360;2024-03-07T02:45:34;3.42;86.12
39401;SHT31;75540;50.000;7.360;2024-03-07T02:48:03;3.26;86.46
39401;SHT31;75540;50.000;7.360;2024-03-07T02:50:32;3.23;86.73
39401;SHT31;75540;50.000;7.360;2024-03-07T02:53:01;3.15;87.18
39401;SHT31;75540;50.000;7.360;2024-03-07T02:55:32;3.26;87.06
39401;SHT31;75540;50.000;7.360;2024-03-07T02:58:01;3.36;86.66
39401;SHT31;75540;50.000;7.360;2024-03-07T03:00:29;3.33;86.52
39401;SHT31;75540;50.000;7.360;2024-03-07T03:02:57;3.23;86.41
39401;SHT31;75540;50.000;7.360;2024-03-07T03:05:25;3.16;86.55
39401;SHT31;75540;50.000;7.360;2024-03-07T03:07:54;3.18;86.47
39401;SHT31;75540;50.000;7.360;2024-03-07T03:10:24;3.20;86.45
39401;SHT31;75540;50.000;7.360;2024-03-07T03:12:58;3.12;86.95
39401;SHT31;75540;50.000;7.360;2024-03-07T03:15:28;3.09;87.24
39401;SHT31;75540;50.000;7.360;2024-03-07T03:17:57;3.18;87.06
39401;SHT31;75540;50.000;7.360;2024-03-07T03:20:27;3.16;87.07
39401;SHT31;75540;50.000;7.360;2024-03-07T03:23:03;3.20;87.03
39401;SHT31;75540;50.000;7.360;2024-03-07T03:25:46;3.05;87.59
39401;SHT31;75540;50.000;7.360;2024-03-07T03:28:17;3.01;87.89
39401;SHT31;75540;50.000;7.360;2024-03-07T03:30:48;3.06;87.82
39401;SHT31;75540;50.000;7.360;2024-03-07T03:33:17;2.98;88.10
39401;SHT31;75540;50.000;7.360;2024-03-07T03:35:45;2.87;88.45
39401;SHT31;75540;50.000;7.360;2024-03-07T03:38:14;2.91;88.66
39401;SHT31;75540;50.000;7.360;2024-03-07T03:40:47;2.77;89.27
39401;SHT31;75540;50.000;7.360;2024-03-07T03:43:17;2.70;89.72
39401;SHT31;75540;50.000;7.360;2024-03-07T03:45:45;2.68;90.09
39401;SHT31;75540;50.000;7.360;2024-03-07T03:48:14;2.70;89.87
39401;SHT31;75540;50.000;7.360;2024-03-07T03:50:43;2.62;90.17
39401;SHT31;75540;50.000;7.360;2024-03-07T03:53:13;2.57;90.27
39401;SHT31;75540;50.000;7.360;2024-03-07T03:55:41;2.61;90.38
39401;SHT31;75540;50.000;7.360;2024-03-07T03:58:09;2.55;90.46
39401;SHT31;75540;50.000;7.360;2024-03-07T04:00:39;2.51;90.66
39401;SHT31;75540;50.000;7.360;2024-03-07T04:03:07;2.47;90.88
39401;SHT31;75540;50.000;7.360;2024-03-07T04:05:35;2.55;90.59
39401;SHT31;75540;50.000;7.360;2024-03-07T04:08:04;2.53;90.52
39401;SHT31;75540;50.000;7.360;2024-03-07T04:10:32;2.45;90.55
39401;SHT31;75540;50.000;7.360;2024-03-07T04:13:00;2.41;90.75
39401;SHT31;75540;50.000;7.360;2024-03-07T04:15:28;2.43;91.06
39401;SHT31;75540;50.000;7.360;2024-03-07T04:18:05;2.36;91.05
39401;SHT31;75540;50.000;7.360;2024-03-07T04:20:34;2.33;91.19
39401;SHT31;75540;50.000;7.360;2024-03-07T04:23:03;2.40;90.91
39401;SHT31;75540;50.000;7.360;2024-03-07T04:25:34;2.41;90.73
39401;SHT31;75540;50.000;7.360;2024-03-07T04:28:03;2.38;90.92
39401;SHT31;75540;50.000;7.360;2024-03-07T04:30:32;2.32;91.35
39401;SHT31;75540;50.000;7.360;2024-03-07T04:33:00;2.32;91.77
39401;SHT31;75540;50.000;7.360;2024-03-07T04:35:30;2.22;92.18
39401;SHT31;75540;50.000;7.360;2024-03-07T04:37:58;2.30;91.91
39401;SHT31;75540;50.000;7.360;2024-03-07T04:40:27;2.17;92.38
39401;SHT31;75540;50.000;7.360;2024-03-07T04:42:55;2.17;92.39
39401;SHT31;75540;50.000;7.360;2024-03-07T04:45:23;2.17;92.71
39401;SHT31;75540;50.000;7.360;2024-03-07T04:47:51;2.07;92.86
39401;SHT31;75540;50.000;7.360;2024-03-07T04:50:20;1.99;92.99
39401;SHT31;75540;50.000;7.360;2024-03-07T04:52:50;2.05;92.69
39401;SHT31;75540;50.000;7.360;2024-03-07T04:55:18;1.98;92.87
39401;SHT31;75540;50.000;7.360;2024-03-07T04:57:46;1.90;93.28
39401;SHT31;75540;50.000;7.360;2024-03-07T05:00:15;1.86;93.38
39401;SHT31;75540;50.000;7.360;2024-03-07T05:02:48;1.78;93.76
39401;SHT31;75540;50.000;7.360;2024-03-07T05:05:17;1.69;94.11
39401;SHT31;75540;50.000;7.360;2024-03-07T05:07:52;1.68;94.42
39401;SHT31;75540;50.000;7.360;2024-03-07T05:10:20;1.65;94.67
39401;SHT31;75540;50.000;7.360;2024-03-07T05:12:49;1.63;94.82
39401;SHT31;75540;50.000;7.360;2024-03-07T05:15:17;1.54;95.06
39401;SHT31;75540;50.000;7.360;2024-03-07T05:17:46;1.69;94.71
39401;SHT31;75540;50.000;7.360;2024-03-07T05:20:14;1.62;94.83
39401;SHT31;75540;50.000;7.360;2024-03-07T05:22:43;1.56;94.83
39401;SHT31;75540;50.000;7.360;2024-03-07T05:25:19;1.52;94.92
39401;SHT31;75540;50.000;7.360;2024-03-07T05:27:49;1.45;95.18
39401;SHT31;75540;50.000;7.360;2024-03-07T05:30:19;1.47;95.26
39401;SHT31;75540;50.000;7.360;2024-03-07T05:32:48;1.54;95.22
39401;SHT31;75540;50.000;7.360;2024-03-07T05:35:17;1.47;95.72
39401;SHT31;75540;50.000;7.360;2024-03-07T05:37:48;1.49;95.68
39401;SHT31;75540;50.000;7.360;2024-03-07T05:40:20;1.63;95.21
39401;SHT31;75540;50.000;7.360;2024-03-07T05:42:48;1.58;95.11
39401;SHT31;75540;50.000;7.360;2024-03-07T05:45:16;1.56;95.23
39401;SHT31;75540;50.000;7.360;2024-03-07T05:47:46;1.52;95.24
39401;SHT31;75540;50.000;7.360;2024-03-07T05:50:16;1.54;95.10
39401;SHT31;75540;50.000;7.360;2024-03-07T05:52:45;1.56;94.98
39401;SHT31;75540;50.000;7.360;2024-03-07T05:55:15;1.62;94.60
39401;SHT31;75540;50.000;7.360;2024-03-07T05:57:47;1.62;94.40
39401;SHT31;75540;50.000;7.360;2024-03-07T06:00:16;1.60;94.21
39401;SHT31;75540;50.000;7.360;2024-03-07T06:02:54;1.58;94.32
39401;SHT31;75540;50.000;7.360;2024-03-07T06:05:23;1.60;94.12
39401;SHT31;75540;50.000;7.360;2024-03-07T06:07:51;1.60;94.11
39401;SHT31;75540;50.000;7.360;2024-03-07T06:10:19;1.56;94.06
39401;SHT31;75540;50.000;7.360;2024-03-07T06:12:52;1.62;93.99
39401;SHT31;75540;50.000;7.360;2024-03-07T06:15:23;1.62;94.10
39401;SHT31;75540;50.000;7.360;2024-03-07T06:17:52;1.80;93.71
39401;SHT31;75540;50.000;7.360;2024-03-07T06:20:21;1.78;93.52
39401;SHT31;75540;50.000;7.360;2024-03-07T06:22:52;1.79;93.49
39401;SHT31;75540;50.000;7.360;2024-03-07T06:25:20;1.86;93.29
39401;SHT31;75540;50.000;7.360;2024-03-07T06:28:02;1.99;93.26
39401;SHT31;75540;50.000;7.360;2024-03-07T06:30:36;2.05;92.85
39401;SHT31;75540;50.000;7.360;2024-03-07T06:33:06;2.05;92.64
39401;SHT31;75540;50.000;7.360;2024-03-07T06:35:34;2.07;92.63
39401;SHT31;75540;50.000;7.360;2024-03-07T06:38:04;2.03;92.57
39401;SHT31;75540;50.000;7.360;2024-03-07T06:40:33;2.03;92.60
39401;SHT31;75540;50.000;7.360;2024-03-07T06:43:03;2.23;92.19
39401;SHT31;75540;50.000;7.360;2024-03-07T06:45:46;2.29;91.93
39401;SHT31;75540;50.000;7.360;2024-03-07T06:48:14;2.40;91.70
39401;SHT31;75540;50.000;7.360;2024-03-07T06:50:44;2.60;90.58
39401;SHT31;75540;50.000;7.360;2024-03-07T06:53:12;2.70;89.53
39401;SHT31;75540;50.000;7.360;2024-03-07T06:55:41;2.94;88.87
39401;SHT31;75540;50.000;7.360;2024-03-07T06:58:10;3.33;87.45
39401;SHT31;75540;50.000;7.360;2024-03-07T07:00:38;3.39;86.28
39401;SHT31;75540;50.000;7.360;2024-03-07T07:03:07;3.67;85.73
39401;SHT31;75540;50.000;7.360;2024-03-07T07:05:35;3.60;85.42
39401;SHT31;75540;50.000;7.360;2024-03-07T07:08:05;4.11;84.15
39401;SHT31;75540;50.000;7.360;2024-03-07T07:10:34;4.59;81.90
39401;SHT31;75540;50.000;7.360;2024-03-07T07:13:03;4.82;79.79
39401;SHT31;75540;50.000;7.360;2024-03-07T07:15:33;5.55;77.96
39401;SHT31;75540;50.000;7.360;2024-03-07T07:18:04;6.03;76.63
39401;SHT31;75540;50.000;7.360;2024-03-07T07:20:34;6.42;73.17
39401;SHT31;75540;50.000;7.360;2024-03-07T07:23:03;6.47;73.89
39401;SHT31;75540;50.000;7.360;2024-03-07T07:25:31;6.62;73.13
39401;SHT31;75540;50.000;7.360;2024-03-07T07:28:00;6.74;71.97
39401;SHT31;75540;50.000;7.360;2024-03-07T07:30:33;6.64;72.91
39401;SHT31;75540;50.000;7.360;2024-03-07T07:33:01;6.80;71.60
39401;SHT31;75540;50.000;7.360;2024-03-07T07:35:30;7.18;69.69
39401;SHT31;75540;50.000;7.360;2024-03-07T07:37:59;7.27;68.61
39401;SHT31;75540;50.000;7.360;2024-03-07T07:40:28;7.62;68.51
39401;SHT31;75540;50.000;7.360;2024-03-07T07:42:58;8.00;67.29
39401;SHT31;75540;50.000;7.360;2024-03-07T07:45:28;7.72;68.60
39401;SHT31;75540;50.000;7.360;2024-03-07T07:47:57;8.29;65.02
39401;SHT31;75540;50.000;7.360;2024-03-07T07:50:26;7.75;67.11
39401;SHT31;75540;50.000;7.360;2024-03-07T07:52:56;8.33;64.65
39401;SHT31;75540;50.000;7.360;2024-03-07T07:55:26;8.50;64.98
39401;SHT31;75540;50.000;7.360;2024-03-07T07:57:55;9.01;61.96
39401;SHT31;75540;50.000;7.360;2024-03-07T08:00:25;8.61;62.33
39401;SHT31;75540;50.000;7.360;2024-03-07T08:02:59;8.34;63.20
39401;SHT31;75540;50.000;7.360;2024-03-07T08:05:29;8.50;62.22
39401;SHT31;75540;50.000;7.360;2024-03-07T08:07:59;8.74;62.19
39401;SHT31;75540;50.000;7.360;2024-03-07T08:10:29;8.79;62.29
39401;SHT31;75540;50.000;7.360;2024-03-07T08:12:59;8.20;60.35
39401;SHT31;75540;50.000;7.360;2024-03-07T08:15:28;8.61;60.95
39401;SHT31;75540;50.000;7.360;2024-03-07T08:17:58;9.26;59.08
39401;SHT31;75540;50.000;7.360;2024-03-07T08:20:27;9.23;59.51
39401;SHT31;75540;50.000;7.360;2024-03-07T08:22:56;9.61;58.00
39401;SHT31;75540;50.000;7.360;2024-03-07T08:25:28;8.92;58.51
39401;SHT31;75540;50.000;7.360;2024-03-07T08:27:57;9.50;56.99
39401;SHT31;75540;50.000;7.360;2024-03-07T08:30:25;9.42;56.43
39401;SHT31;75540;50.000;7.360;2024-03-07T08:32:58;8.23;59.39
39401;SHT31;75540;50.000;7.360;2024-03-07T08:35:29;8.34;59.39
39401;SHT31;75540;50.000;7.360;2024-03-07T08:37:57;9.16;58.97
39401;SHT31;75540;50.000;7.360;2024-03-07T08:40:27;8.78;59.37
39401;SHT31;75540;50.000;7.360;2024-03-07T08:42:58;7.52;61.94
39401;SHT31;75540;50.000;7.360;2024-03-07T08:45:27;7.68;62.35
39401;SHT31;75540;50.000;7.360;2024-03-07T08:47:58;6.96;63.82
39401;SHT31;75540;50.000;7.360;2024-03-07T08:50:27;6.05;66.08
39401;SHT31;75540;50.000;7.360;2024-03-07T08:52:55;5.64;68.16
39401;SHT31;75540;50.000;7.360;2024-03-07T08:55:24;5.72;69.23
39401;SHT31;75540;50.000;7.360;2024-03-07T08:57:53;5.72;69.60
39401;SHT31;75540;50.000;7.360;2024-03-07T09:00:22;5.50;68.97
39401;SHT31;75540;50.000;7.360;2024-03-07T09:02:53;5.75;69.25
39401;SHT31;75540;50.000;7.360;2024-03-07T09:05:27;6.02;67.33
39401;SHT31;75540;50.000;7.360;2024-03-07T09:07:58;7.19;63.90
39401;SHT31;75540;50.000;7.360;2024-03-07T09:10:26;7.01;62.47
39401;SHT31;75540;50.000;7.360;2024-03-07T09:12:58;7.24;64.02
39401;SHT31;75540;50.000;7.360;2024-03-07T09:15:26;8.26;59.91
39401;SHT31;75540;50.000;7.360;2024-03-07T09:17:55;7.07;62.18
39401;SHT31;75540;50.000;7.360;2024-03-07T09:20:27;6.19;64.18
39401;SHT31;75540;50.000;7.360;2024-03-07T09:22:55;5.09;68.29
39401;SHT31;75540;50.000;7.360;2024-03-07T09:25:23;4.97;68.98
39401;SHT31;75540;50.000;7.360;2024-03-07T09:27:53;4.61;70.78
39401;SHT31;75540;50.000;7.360;2024-03-07T09:30:22;4.00;71.86
39401;SHT31;75540;50.000;7.360;2024-03-07T09:32:54;4.01;72.13
39401;SHT31;75540;50.000;7.360;2024-03-07T09:35:23;3.94;71.28
39401;SHT31;75540;50.000;7.360;2024-03-07T09:37:53;4.03;71.97
39401;SHT31;75540;50.000;7.360;2024-03-07T09:40:22;4.27;71.23
39401;SHT31;75540;50.000;7.360;2024-03-07T09:42:55;4.11;71.20
39401;SHT31;75540;50.000;7.360;2024-03-07T09:45:29;4.21;70.03
39401;SHT31;75540;50.000;7.360;2024-03-07T09:47:59;4.46;69.89
39401;SHT31;75540;50.000;7.360;2024-03-07T09:50:29;4.46;68.93
39401;SHT31;75540;50.000;7.360;2024-03-07T09:53:00;4.56;68.65
39401;SHT31;75540;50.000;7.360;2024-03-07T09:55:30;4.42;68.89
39401;SHT31;75540;50.000;7.360;2024-03-07T09:58:00;4.59;67.36
39401;SHT31;75540;50.000;7.360;2024-03-07T10:00:30;5.07;67.54
39401;SHT31;75540;50.000;7.360;2024-03-07T10:03:04;5.82;65.02
39401;SHT31;75540;50.000;7.360;2024-03-07T10:05:33;6.40;61.59
39401;SHT31;75540;50.000;7.360;2024-03-07T10:08:05;6.43;61.54
39401;SHT31;75540;50.000;7.360;2024-03-07T10:10:35;7.15;59.31
39401;SHT31;75540;50.000;7.360;2024-03-07T10:13:03;6.66;59.53
39401;SHT31;75540;50.000;7.360;2024-03-07T10:15:33;6.93;60.83
39401;SHT31;75540;50.000;7.360;2024-03-07T10:18:06;6.81;60.74
39401;SHT31;75540;50.000;7.360;2024-03-07T10:20:37;6.28;61.97
39401;SHT31;75540;50.000;7.360;2024-03-07T10:23:08;5.97;64.03
39401;SHT31;75540;50.000;7.360;2024-03-07T10:25:37;5.91;63.89
39401;SHT31;75540;50.000;7.360;2024-03-07T10:28:07;6.69;62.69
39401;SHT31;75540;50.000;7.360;2024-03-07T15:35:29;6.01;69.68
39401;SHT31;75540;50.000;7.360;2024-03-07T15:37:58;6.01;70.15
39401;SHT31;75540;50.000;7.360;2024-03-07T15:40:27;6.02;69.22
39401;SHT31;75540;50.000;7.360;2024-03-07T15:42:56;6.09;69.27
39401;SHT31;75540;50.000;7.360;2024-03-07T15:45:25;5.95;68.46
39401;SHT31;75540;50.000;7.360;2024-03-07T15:47:55;5.98;67.89
39401;SHT31;75540;50.000;7.360;2024-03-07T15:50:26;5.95;68.38
39401;SHT31;75540;50.000;7.360;2024-03-07T15:52:58;5.79;70.25
39401;SHT31;75540;50.000;7.360;2024-03-07T15:55:28;5.94;68.90
39401;SHT31;75540;50.000;7.360;2024-03-07T15:57:59;5.99;69.49
39401;SHT31;75540;50.000;7.360;2024-03-07T16:00:31;6.02;69.78
39401;SHT31;75540;50.000;7.360;2024-03-07T16:03:03;6.02;69.59
39401;SHT31;75540;50.000;7.360;2024-03-07T16:05:32;5.95;69.25
39401;SHT31;75540;50.000;7.360;2024-03-07T16:08:04;6.01;69.49
39401;SHT31;75540;50.000;7.360;2024-03-07T16:10:34;5.92;69.13
39401;SHT31;75540;50.000;7.360;2024-03-07T16:13:04;5.77;69.21
39401;SHT31;75540;50.000;7.360;2024-03-07T16:15:34;5.74;69.52
39401;SHT31;75540;50.000;7.360;2024-03-07T16:18:08;5.67;70.14
39401;SHT31;75540;50.000;7.360;2024-03-07T16:20:38;5.70;70.21
39401;SHT31;75540;50.000;7.360;2024-03-07T16:23:09;5.71;70.83
39401;SHT31;75540;50.000;7.360;2024-03-07T16:25:38;5.65;70.29
39401;SHT31;75540;50.000;7.360;2024-03-07T16:28:07;5.68;69.95
39401;SHT31;75540;50.000;7.360;2024-03-07T16:30:39;5.64;70.07
39401;SHT31;75540;50.000;7.360;2024-03-07T16:33:12;5.67;70.43
39401;SHT31;75540;50.000;7.360;2024-03-07T16:35:45;5.68;69.89
39401;SHT31;75540;50.000;7.360;2024-03-07T16:38:15;5.70;70.47
39401;SHT31;75540;50.000;7.360;2024-03-07T16:40:43;5.55;71.38
39401;SHT31;75540;50.000;7.360;2024-03-07T16:43:12;5.51;71.43
39401;SHT31;75540;50.000;7.360;2024-03-07T16:45:41;5.51;71.76
39401;SHT31;75540;50.000;7.360;2024-03-07T16:48:10;5.61;71.80
39401;SHT31;75540;50.000;7.360;2024-03-07T16:50:39;5.51;71.63
39401;SHT31;75540;50.000;7.360;2024-03-07T16:53:10;5.44;71.88
39401;SHT31;75540;50.000;7.360;2024-03-07T16:55:41;5.40;71.46
39401;SHT31;75540;50.000;7.360;2024-03-07T16:58:13;5.38;71.69
39401;SHT31;75540;50.000;7.360;2024-03-07T17:00:43;5.44;72.02
39401;SHT31;75540;50.000;7.360;2024-03-07T17:03:11;5.51;72.26
39401;SHT31;75540;50.000;7.360;2024-03-07T17:05:42;5.44;72.09
39401;SHT31;75540;50.000;7.360;2024-03-07T17:08:12;5.36;72.52
39401;SHT31;75540;50.000;7.360;2024-03-07T17:10:45;5.31;72.57
39401;SHT31;75540;50.000;7.360;2024-03-07T17:13:13;5.33;72.58
39401;SHT31;75540;50.000;7.360;2024-03-07T17:15:43;5.29;73.00
39401;SHT31;75540;50.000;7.360;2024-03-07T17:18:13;5.30;72.55
39401;SHT31;75540;50.000;7.360;2024-03-07T17:20:43;5.33;72.88
39401;SHT31;75540;50.000;7.360;2024-03-07T17:23:14;5.26;72.72
39401;SHT31;75540;50.000;7.360;2024-03-07T17:25:45;5.31;72.66
39401;SHT31;75540;50.000;7.360;2024-03-07T17:28:18;5.34;73.05
39401;SHT31;75540;50.000;7.360;2024-03-07T17:30:47;5.27;72.88
39401;SHT31;75540;50.000;7.360;2024-03-07T17:33:17;5.27;72.58
39401;SHT31;75540;50.000;7.360;2024-03-07T17:35:45;5.36;72.63
39401;SHT31;75540;50.000;7.360;2024-03-07T17:38:13;5.29;73.00
39401;SHT31;75540;50.000;7.360;2024-03-07T17:40:42;5.31;73.02
39401;SHT31;75540;50.000;7.360;2024-03-07T17:43:12;5.29;72.89
39401;SHT31;75540;50.000;7.360;2024-03-07T17:45:40;5.27;72.79
39401;SHT31;75540;50.000;7.360;2024-03-07T17:48:08;5.19;73.02
39401;SHT31;75540;50.000;7.360;2024-03-07T17:50:38;5.20;72.91
39401;SHT31;75540;50.000;7.360;2024-03-07T17:53:06;5.15;73.46
39401;SHT31;75540;50.000;7.360;2024-03-07T17:55:39;5.15;73.76
39401;SHT31;75540;50.000;7.360;2024-03-07T17:58:13;5.12;73.87
39401;SHT31;75540;50.000;7.360;2024-03-07T18:00:44;5.10;73.83
39401;SHT31;75540;50.000;7.360;2024-03-07T18:03:13;5.05;73.91
39401;SHT31;75540;50.000;7.360;2024-03-07T18:05:44;5.06;74.35
39401;SHT31;75540;50.000;7.360;2024-03-07T18:08:17;5.00;74.28
39401;SHT31;75540;50.000;7.360;2024-03-07T18:11:06;4.96;75.21
39401;SHT31;75540;50.000;7.360;2024-03-07T18:13:43;4.96;74.96
39401;SHT31;75540;50.000;7.360;2024-03-07T18:16:12;4.97;75.12
39401;SHT31;75540;50.000;7.360;2024-03-07T18:18:42;4.97;75.45
39401;SHT31;75540;50.000;7.360;2024-03-07T18:21:13;4.92;75.13
39401;SHT31;75540;50.000;7.360;2024-03-07T18:23:42;4.90;75.30
39401;SHT31;75540;50.000;7.360;2024-03-07T18:26:12;4.92;75.18
39401;SHT31;75540;50.000;7.360;2024-03-07T18:28:42;4.93;75.03
39401;SHT31;75540;50.000;7.360;2024-03-07T18:31:14;4.89;75.60
39401;SHT31;75540;50.000;7.360;2024-03-07T18:33:43;4.87;75.54
39401;SHT31;75540;50.000;7.360;2024-03-07T18:36:12;4.90;75.77
39401;SHT31;75540;50.000;7.360;2024-03-07T18:38:40;4.85;75.48
39401;SHT31;75540;50.000;7.360;2024-03-07T18:41:10;4.85;75.55
39401;SHT31;75540;50.000;7.360;2024-03-07T18:43:39;4.89;75.40
39401;SHT31;75540;50.000;7.360;2024-03-07T18:46:10;4.80;75.52
39401;SHT31;75540;50.000;7.360;2024-03-07T18:48:39;4.79;75.60
39401;SHT31;75540;50.000;7.360;2024-03-07T18:51:09;4.76;76.16
39401;SHT31;75540;50.000;7.360;2024-03-07T18:53:38;4.77;76.29
39401;SHT31;75540;50.000;7.360;2024-03-07T18:56:06;4.75;76.00
39401;SHT31;75540;50.000;7.360;2024-03-07T18:58:38;4.72;76.12
39401;SHT31;75540;50.000;7.360;2024-03-07T19:01:06;4.76;76.15
39401;SHT31;75540;50.000;7.360;2024-03-07T19:03:37;4.76;75.87
39401;SHT31;75540;50.000;7.360;2024-03-07T19:06:06;4.77;75.78
39401;SHT31;75540;50.000;7.360;2024-03-07T19:08:37;4.75;75.80
39401;SHT31;75540;50.000;7.360;2024-03-07T19:11:06;4.73;75.95
39401;SHT31;75540;50.000;7.360;2024-03-07T19:13:35;4.71;76.10
39401;SHT31;75540;50.000;7.360;2024-03-07T19:16:06;4.71;76.01
39401;SHT31;75540;50.000;7.360;2024-03-07T19:18:37;4.62;75.86
39401;SHT31;75540;50.000;7.360;2024-03-07T19:21:06;4.66;75.61
39401;SHT31;75540;50.000;7.360;2024-03-07T19:23:40;4.68;75.86
39401;SHT31;75540;50.000;7.360;2024-03-07T19:26:16;4.62;76.21
39401;SHT31;75540;50.000;7.360;2024-03-07T19:28:47;4.65;76.01
39401;SHT31;75540;50.000;7.360;2024-03-07T19:31:16;4.64;75.78
39401;SHT31;75540;50.000;7.360;2024-03-07T19:33:46;4.62;75.30
39401;SHT31;75540;50.000;7.360;2024-03-07T19:36:18;4.58;75.66
39401;SHT31;75540;50.000;7.360;2024-03-07T19:38:47;4.58;74.99
39401;SHT31;75540;50.000;7.360;2024-03-07T19:41:16;4.55;75.50
39401;SHT31;75540;50.000;7.360;2024-03-07T19:43:44;4.52;75.64
39401;SHT31;75540;50.000;7.360;2024-03-07T19:46:13;4.52;75.14
39401;SHT31;75540;50.000;7.360;2024-03-07T19:48:41;4.52;73.92
39401;SHT31;75540;50.000;7.360;2024-03-07T19:51:12;4.49;74.31
39401;SHT31;75540;50.000;7.360;2024-03-07T19:53:40;4.56;74.11
39401;SHT31;75540;50.000;7.360;2024-03-07T19:56:09;4.51;73.39
39401;SHT31;75540;50.000;7.360;2024-03-07T19:58:40;4.55;73.62
39401;SHT31;75540;50.000;7.360;2024-03-07T20:01:11;4.48;73.23
39401;SHT31;75540;50.000;7.360;2024-03-07T20:03:40;4.51;73.26
39401;SHT31;75540;50.000;7.360;2024-03-07T20:06:09;4.49;73.09
39401;SHT31;75540;50.000;7.360;2024-03-07T20:08:39;4.44;72.75
39401;SHT31;75540;50.000;7.360;2024-03-07T20:11:07;4.48;73.05
39401;SHT31;75540;50.000;7.360;2024-03-07T20:13:37;4.41;73.08
39401;SHT31;75540;50.000;7.360;2024-03-07T20:16:07;4.48;73.09
39401;SHT31;75540;50.000;7.360;2024-03-07T20:18:38;4.45;72.74
39401;SHT31;75540;50.000;7.360;2024-03-07T20:21:08;4.44;72.31
39401;SHT31;75540;50.000;7.360;2024-03-07T20:23:39;4.41;72.58
39401;SHT31;75540;50.000;7.360;2024-03-07T20:26:08;4.38;72.73
39401;SHT31;75540;50.000;7.360;2024-03-07T20:28:37;4.35;73.08
39401;SHT31;75540;50.000;7.360;2024-03-07T20:31:05;4.32;72.32
39401;SHT31;75540;50.000;7.360;2024-03-07T20:33:35;4.35;72.41
39401;SHT31;75540;50.000;7.360;2024-03-07T20:36:05;4.37;72.36
39401;SHT31;75540;50.000;7.360;2024-03-07T20:38:38;4.34;72.36
39401;SHT31;75540;50.000;7.360;2024-03-07T20:41:08;4.32;71.61
39401;SHT31;75540;50.000;7.360;2024-03-07T20:43:37;4.28;72.42
39401;SHT31;75540;50.000;7.360;2024-03-07T20:46:06;4.30;72.30
39401;SHT31;75540;50.000;7.360;2024-03-07T20:48:34;4.28;71.92
39401;SHT31;75540;50.000;7.360;2024-03-07T20:51:04;4.28;70.72
39401;SHT31;75540;50.000;7.360;2024-03-07T20:53:33;4.27;70.85
39401;SHT31;75540;50.000;7.360;2024-03-07T20:56:03;4.30;71.27
39401;SHT31;75540;50.000;7.360;2024-03-07T20:58:34;4.24;71.38
39401;SHT31;75540;50.000;7.360;2024-03-07T21:01:03;4.21;71.87
39401;SHT31;75540;50.000;7.360;2024-03-07T21:03:35;4.21;71.34
39401;SHT31;75540;50.000;7.360;2024-03-07T21:06:08;4.25;71.23